sensor_id;sensor_type;location;lat;lon;timestamp;P1;durP1;ratioP1;P2;durP2;ratioP2
56005;SDS011;41888;44.696;10.522;2023-07-24T00:02:12;21.48;;;10.13;;
56005;SDS011;41888;44.696;10.522;2023-07-24T00:04:39;25.27;;;10.40;;
56005;SDS011;41888;44.696;10.522;2023-07-24T00:07:05;25.17;;;10.88;;
56005;SDS011;41888;44.696;10.522;2023-07-24T00:09:31;27.73;;;11.15;;
56005;SDS011;41888;44.696;10.522;2023-07-24T00:11:58;23.60;;;10.65;;
56005;SDS011;41888;44.696;10.522;2023-07-24T00:14:24;26.25;;;10.10;;
56005;SDS011;41888;44.696;10.522;2023-07-24T00:16:50;22.77;;;9.35;;
56005;SDS011;41888;44.696;10.522;2023-07-24T00:19:16;22.38;;;10.63;;
56005;SDS011;41888;44.696;10.522;2023-07-24T00:21:42;24.77;;;10.93;;
56005;SDS011;41888;44.696;10.522;2023-07-24T00:24:08;23.23;;;9.82;;
56005;SDS011;41888;44.696;10.522;2023-07-24T00:26:35;22.80;;;9.73;;
56005;SDS011;41888;44.696;10.522;2023-07-24T00:29:01;26.00;;;10.15;;
56005;SDS011;41888;44.696;10.522;2023-07-24T00:31:27;28.08;;;11.30;;
56005;SDS011;41888;44.696;10.522;2023-07-24T00:33:54;27.83;;;11.50;;
56005;SDS011;41888;44.696;10.522;2023-07-24T00:36:20;27.45;;;10.07;;
56005;SDS011;41888;44.696;10.522;2023-07-24T00:38:46;25.40;;;10.50;;
56005;SDS011;41888;44.696;10.522;2023-07-24T00:41:12;24.55;;;11.18;;
56005;SDS011;41888;44.696;10.522;2023-07-24T00:43:38;27.02;;;9.90;;
56005;SDS011;41888;44.696;10.522;2023-07-24T00:46:06;25.48;;;11.15;;
56005;SDS011;41888;44.696;10.522;2023-07-24T00:48:32;24.35;;;9.88;;
56005;SDS011;41888;44.696;10.522;2023-07-24T00:50:58;21.17;;;9.93;;
56005;SDS011;41888;44.696;10.522;2023-07-24T00:53:26;24.77;;;10.60;;
56005;SDS011;41888;44.696;10.522;2023-07-24T00:55:53;22.50;;;9.48;;
56005;SDS011;41888;44.696;10.522;2023-07-24T00:58:19;27.52;;;10.15;;
56005;SDS011;41888;44.696;10.522;2023-07-24T01:00:46;25.33;;;9.88;;
56005;SDS011;41888;44.696;10.522;2023-07-24T01:03:12;22.55;;;9.70;;
56005;SDS011;41888;44.696;10.522;2023-07-24T01:05:39;21.05;;;10.05;;
56005;SDS011;41888;44.696;10.522;2023-07-24T01:08:06;25.08;;;8.82;;
56005;SDS011;41888;44.696;10.522;2023-07-24T01:10:32;21.65;;;9.32;;
56005;SDS011;41888;44.696;10.522;2023-07-24T01:13:02;24.38;;;10.98;;
56005;SDS011;41888;44.696;10.522;2023-07-24T01:15:39;23.13;;;9.63;;
56005;SDS011;41888;44.696;10.522;2023-07-24T01:18:13;23.98;;;9.30;;
56005;SDS011;41888;44.696;10.522;2023-07-24T01:20:44;24.15;;;8.73;;
56005;SDS011;41888;44.696;10.522;2023-07-24T01:23:20;25.13;;;9.65;;
56005;SDS011;41888;44.696;10.522;2023-07-24T01:26:06;21.15;;;9.73;;
56005;SDS011;41888;44.696;10.522;2023-07-24T01:28:34;19.48;;;9.18;;
56005;SDS011;41888;44.696;10.522;2023-07-24T01:31:00;21.63;;;7.88;;
56005;SDS011;41888;44.696;10.522;2023-07-24T01:33:27;20.58;;;8.93;;
56005;SDS011;41888;44.696;10.522;2023-07-24T01:35:59;26.17;;;9.18;;
56005;SDS011;41888;44.696;10.522;2023-07-24T01:38:28;18.52;;;8.75;;
56005;SDS011;41888;44.696;10.522;2023-07-24T01:40:58;21.75;;;8.23;;
56005;SDS011;41888;44.696;10.522;2023-07-24T01:43:26;21.15;;;9.32;;
56005;SDS011;41888;44.696;10.522;2023-07-24T01:45:53;24.85;;;8.70;;
56005;SDS011;41888;44.696;10.522;2023-07-24T01:48:19;24.77;;;9.70;;
56005;SDS011;41888;44.696;10.522;2023-07-24T01:50:45;20.00;;;8.85;;
56005;SDS011;41888;44.696;10.522;2023-07-24T01:53:11;19.23;;;8.75;;
56005;SDS011;41888;44.696;10.522;2023-07-24T01:55:37;18.45;;;8.23;;
56005;SDS011;41888;44.696;10.522;2023-07-24T01:58:04;21.60;;;8.93;;
56005;SDS011;41888;44.696;10.522;2023-07-24T02:00:30;18.92;;;8.98;;
56005;SDS011;41888;44.696;10.522;2023-07-24T02:02:56;17.85;;;8.18;;
56005;SDS011;41888;44.696;10.522;2023-07-24T02:05:22;18.67;;;7.75;;
56005;SDS011;41888;44.696;10.522;2023-07-24T02:07:49;17.40;;;8.80;;
56005;SDS011;41888;44.696;10.522;2023-07-24T02:10:15;20.75;;;9.48;;
56005;SDS011;41888;44.696;10.522;2023-07-24T02:12:41;20.30;;;8.57;;
56005;SDS011;41888;44.696;10.522;2023-07-24T02:15:07;23.98;;;9.48;;
56005;SDS011;41888;44.696;10.522;2023-07-24T02:17:34;18.75;;;8.45;;
56005;SDS011;41888;44.696;10.522;2023-07-24T02:20:00;18.02;;;8.40;;
56005;SDS011;41888;44.696;10.522;2023-07-24T02:22:26;20.92;;;9.32;;
56005;SDS011;41888;44.696;10.522;2023-07-24T02:24:53;18.27;;;8.02;;
56005;SDS011;41888;44.696;10.522;2023-07-24T02:27:30;18.92;;;8.52;;
56005;SDS011;41888;44.696;10.522;2023-07-24T02:29:59;21.70;;;8.70;;
56005;SDS011;41888;44.696;10.522;2023-07-24T02:32:26;21.40;;;8.30;;
56005;SDS011;41888;44.696;10.522;2023-07-24T02:34:52;19.98;;;9.38;;
56005;SDS011;41888;44.696;10.522;2023-07-24T02:37:19;19.45;;;9.18;;
56005;SDS011;41888;44.696;10.522;2023-07-24T02:39:45;16.85;;;7.65;;
56005;SDS011;41888;44.696;10.522;2023-07-24T02:42:12;18.17;;;8.70;;
56005;SDS011;41888;44.696;10.522;2023-07-24T02:44:38;19.20;;;9.18;;
56005;SDS011;41888;44.696;10.522;2023-07-24T02:47:04;21.38;;;8.35;;
56005;SDS011;41888;44.696;10.522;2023-07-24T02:49:30;19.27;;;8.27;;
56005;SDS011;41888;44.696;10.522;2023-07-24T02:51:58;17.42;;;8.20;;
56005;SDS011;41888;44.696;10.522;2023-07-24T02:54:25;20.92;;;9.55;;
56005;SDS011;41888;44.696;10.522;2023-07-24T02:56:51;17.38;;;7.82;;
56005;SDS011;41888;44.696;10.522;2023-07-24T02:59:18;17.55;;;8.27;;
56005;SDS011;41888;44.696;10.522;2023-07-24T03:01:44;19.92;;;9.00;;
56005;SDS011;41888;44.696;10.522;2023-07-24T03:04:10;21.35;;;8.80;;
56005;SDS011;41888;44.696;10.522;2023-07-24T03:06:38;24.65;;;8.90;;
56005;SDS011;41888;44.696;10.522;2023-07-24T03:09:05;21.05;;;8.45;;
56005;SDS011;41888;44.696;10.522;2023-07-24T03:11:32;18.15;;;7.68;;
56005;SDS011;41888;44.696;10.522;2023-07-24T03:13:58;22.83;;;8.93;;
56005;SDS011;41888;44.696;10.522;2023-07-24T03:16:24;20.98;;;8.80;;
56005;SDS011;41888;44.696;10.522;2023-07-24T03:18:50;16.20;;;7.72;;
56005;SDS011;41888;44.696;10.522;2023-07-24T03:21:16;20.13;;;9.80;;
56005;SDS011;41888;44.696;10.522;2023-07-24T03:23:43;18.25;;;7.75;;
56005;SDS011;41888;44.696;10.522;2023-07-24T03:26:10;22.52;;;9.98;;
56005;SDS011;41888;44.696;10.522;2023-07-24T03:28:36;20.23;;;8.98;;
56005;SDS011;41888;44.696;10.522;2023-07-24T03:31:02;17.70;;;7.53;;
56005;SDS011;41888;44.696;10.522;2023-07-24T03:33:28;18.88;;;9.25;;
56005;SDS011;41888;44.696;10.522;2023-07-24T03:35:54;19.90;;;8.57;;
56005;SDS011;41888;44.696;10.522;2023-07-24T03:38:21;15.80;;;8.20;;
56005;SDS011;41888;44.696;10.522;2023-07-24T03:40:47;19.58;;;8.00;;
56005;SDS011;41888;44.696;10.522;2023-07-24T03:43:13;18.58;;;8.40;;
56005;SDS011;41888;44.696;10.522;2023-07-24T03:45:39;21.10;;;8.95;;
56005;SDS011;41888;44.696;10.522;2023-07-24T03:48:07;19.75;;;9.27;;
56005;SDS011;41888;44.696;10.522;2023-07-24T03:50:33;21.30;;;8.95;;
56005;SDS011;41888;44.696;10.522;2023-07-24T03:52:59;22.30;;;9.27;;
56005;SDS011;41888;44.696;10.522;2023-07-24T03:55:25;21.27;;;9.25;;
56005;SDS011;41888;44.696;10.522;2023-07-24T03:57:52;23.60;;;9.13;;
56005;SDS011;41888;44.696;10.522;2023-07-24T04:00:18;19.45;;;8.25;;
56005;SDS011;41888;44.696;10.522;2023-07-24T04:02:44;21.05;;;8.95;;
56005;SDS011;41888;44.696;10.522;2023-07-24T04:05:11;19.60;;;8.73;;
56005;SDS011;41888;44.696;10.522;2023-07-24T04:07:37;21.63;;;10.18;;
56005;SDS011;41888;44.696;10.522;2023-07-24T04:10:04;26.30;;;9.82;;
56005;SDS011;41888;44.696;10.522;2023-07-24T04:12:31;25.08;;;9.50;;
56005;SDS011;41888;44.696;10.522;2023-07-24T04:14:57;19.92;;;8.80;;
56005;SDS011;41888;44.696;10.522;2023-07-24T04:17:23;20.27;;;9.40;;
56005;SDS011;41888;44.696;10.522;2023-07-24T04:19:49;21.58;;;9.43;;
56005;SDS011;41888;44.696;10.522;2023-07-24T04:22:15;24.85;;;10.20;;
56005;SDS011;41888;44.696;10.522;2023-07-24T04:24:42;22.00;;;8.77;;
56005;SDS011;41888;44.696;10.522;2023-07-24T04:27:08;23.80;;;10.35;;
56005;SDS011;41888;44.696;10.522;2023-07-24T04:29:34;24.60;;;10.60;;
56005;SDS011;41888;44.696;10.522;2023-07-24T04:32:00;21.10;;;9.77;;
56005;SDS011;41888;44.696;10.522;2023-07-24T04:34:26;24.77;;;9.23;;
56005;SDS011;41888;44.696;10.522;2023-07-24T04:36:53;20.80;;;9.68;;
56005;SDS011;41888;44.696;10.522;2023-07-24T04:39:19;23.08;;;9.95;;
56005;SDS011;41888;44.696;10.522;2023-07-24T04:41:45;26.10;;;9.77;;
56005;SDS011;41888;44.696;10.522;2023-07-24T04:44:11;24.70;;;9.73;;
56005;SDS011;41888;44.696;10.522;2023-07-24T04:46:37;19.27;;;8.38;;
56005;SDS011;41888;44.696;10.522;2023-07-24T04:49:04;24.42;;;10.20;;
56005;SDS011;41888;44.696;10.522;2023-07-24T04:51:30;20.60;;;8.80;;
56005;SDS011;41888;44.696;10.522;2023-07-24T04:53:56;23.83;;;9.48;;
56005;SDS011;41888;44.696;10.522;2023-07-24T04:56:22;20.63;;;8.85;;
56005;SDS011;41888;44.696;10.522;2023-07-24T04:58:48;20.58;;;8.93;;
56005;SDS011;41888;44.696;10.522;2023-07-24T05:01:14;20.55;;;8.48;;
56005;SDS011;41888;44.696;10.522;2023-07-24T05:03:41;20.85;;;8.68;;
56005;SDS011;41888;44.696;10.522;2023-07-24T05:06:07;20.17;;;8.77;;
56005;SDS011;41888;44.696;10.522;2023-07-24T05:08:33;22.98;;;9.35;;
56005;SDS011;41888;44.696;10.522;2023-07-24T05:10:59;22.08;;;9.32;;
56005;SDS011;41888;44.696;10.522;2023-07-24T05:13:26;18.92;;;8.73;;
56005;SDS011;41888;44.696;10.522;2023-07-24T05:15:52;21.65;;;8.18;;
56005;SDS011;41888;44.696;10.522;2023-07-24T05:18:18;23.08;;;9.73;;
56005;SDS011;41888;44.696;10.522;2023-07-24T05:20:45;20.75;;;8.93;;
56005;SDS011;41888;44.696;10.522;2023-07-24T05:23:17;20.38;;;9.23;;
56005;SDS011;41888;44.696;10.522;2023-07-24T05:25:44;21.23;;;8.73;;
56005;SDS011;41888;44.696;10.522;2023-07-24T05:28:10;21.25;;;8.38;;
56005;SDS011;41888;44.696;10.522;2023-07-24T05:30:36;19.95;;;9.10;;
56005;SDS011;41888;44.696;10.522;2023-07-24T05:33:02;19.90;;;7.78;;
56005;SDS011;41888;44.696;10.522;2023-07-24T05:35:29;22.55;;;8.77;;
56005;SDS011;41888;44.696;10.522;2023-07-24T05:37:55;19.73;;;8.35;;
56005;SDS011;41888;44.696;10.522;2023-07-24T05:40:21;17.48;;;8.13;;
56005;SDS011;41888;44.696;10.522;2023-07-24T05:42:47;18.98;;;8.65;;
56005;SDS011;41888;44.696;10.522;2023-07-24T05:45:14;20.02;;;8.70;;
56005;SDS011;41888;44.696;10.522;2023-07-24T05:47:40;20.70;;;8.77;;
56005;SDS011;41888;44.696;10.522;2023-07-24T05:50:06;17.02;;;7.43;;
56005;SDS011;41888;44.696;10.522;2023-07-24T05:52:33;16.48;;;7.60;;
56005;SDS011;41888;44.696;10.522;2023-07-24T05:54:59;18.42;;;8.00;;
56005;SDS011;41888;44.696;10.522;2023-07-24T05:57:25;22.05;;;9.07;;
56005;SDS011;41888;44.696;10.522;2023-07-24T05:59:51;19.20;;;7.90;;
56005;SDS011;41888;44.696;10.522;2023-07-24T06:02:18;18.23;;;8.02;;
56005;SDS011;41888;44.696;10.522;2023-07-24T06:04:44;21.27;;;8.10;;
56005;SDS011;41888;44.696;10.522;2023-07-24T06:07:10;21.45;;;8.40;;
56005;SDS011;41888;44.696;10.522;2023-07-24T06:09:36;20.35;;;9.05;;
56005;SDS011;41888;44.696;10.522;2023-07-24T06:12:02;18.70;;;8.25;;
56005;SDS011;41888;44.696;10.522;2023-07-24T06:14:29;18.42;;;8.65;;
56005;SDS011;41888;44.696;10.522;2023-07-24T06:16:55;21.35;;;9.02;;
56005;SDS011;41888;44.696;10.522;2023-07-24T06:19:21;20.33;;;8.30;;
56005;SDS011;41888;44.696;10.522;2023-07-24T06:21:48;21.77;;;10.02;;
56005;SDS011;41888;44.696;10.522;2023-07-24T06:24:14;20.13;;;10.05;;
56005;SDS011;41888;44.696;10.522;2023-07-24T06:26:40;18.50;;;9.02;;
56005;SDS011;41888;44.696;10.522;2023-07-24T06:29:06;17.73;;;8.38;;
56005;SDS011;41888;44.696;10.522;2023-07-24T06:31:32;18.10;;;8.40;;
56005;SDS011;41888;44.696;10.522;2023-07-24T06:33:58;22.35;;;8.68;;
56005;SDS011;41888;44.696;10.522;2023-07-24T06:36:25;20.55;;;8.43;;
56005;SDS011;41888;44.696;10.522;2023-07-24T06:38:51;18.17;;;8.38;;
56005;SDS011;41888;44.696;10.522;2023-07-24T06:41:17;19.63;;;8.73;;
56005;SDS011;41888;44.696;10.522;2023-07-24T06:43:45;23.85;;;9.88;;
56005;SDS011;41888;44.696;10.522;2023-07-24T06:46:11;21.58;;;8.65;;
56005;SDS011;41888;44.696;10.522;2023-07-24T06:48:37;23.10;;;10.00;;
56005;SDS011;41888;44.696;10.522;2023-07-24T06:51:03;23.13;;;9.48;;
56005;SDS011;41888;44.696;10.522;2023-07-24T06:53:30;23.63;;;8.93;;
56005;SDS011;41888;44.696;10.522;2023-07-24T06:55:56;24.10;;;10.48;;
56005;SDS011;41888;44.696;10.522;2023-07-24T06:58:22;22.15;;;10.25;;
56005;SDS011;41888;44.696;10.522;2023-07-24T07:00:48;20.67;;;9.73;;
56005;SDS011;41888;44.696;10.522;2023-07-24T07:03:14;20.25;;;9.68;;
56005;SDS011;41888;44.696;10.522;2023-07-24T07:05:41;20.20;;;8.55;;
56005;SDS011;41888;44.696;10.522;2023-07-24T07:08:07;20.63;;;9.32;;
56005;SDS011;41888;44.696;10.522;2023-07-24T07:10:33;22.50;;;9.60;;
56005;SDS011;41888;44.696;10.522;2023-07-24T07:12:59;22.63;;;10.93;;
56005;SDS011;41888;44.696;10.522;2023-07-24T07:15:25;23.13;;;10.20;;
56005;SDS011;41888;44.696;10.522;2023-07-24T07:17:52;21.60;;;10.35;;
56005;SDS011;41888;44.696;10.522;2023-07-24T07:20:18;23.77;;;10.35;;
56005;SDS011;41888;44.696;10.522;2023-07-24T07:22:44;22.77;;;12.05;;
56005;SDS011;41888;44.696;10.522;2023-07-24T07:25:10;23.42;;;10.63;;
56005;SDS011;41888;44.696;10.522;2023-07-24T07:27:36;23.48;;;11.43;;
56005;SDS011;41888;44.696;10.522;2023-07-24T07:30:03;26.25;;;12.07;;
56005;SDS011;41888;44.696;10.522;2023-07-24T07:32:30;25.13;;;11.57;;
56005;SDS011;41888;44.696;10.522;2023-07-24T07:34:56;26.30;;;11.35;;
56005;SDS011;41888;44.696;10.522;2023-07-24T07:37:23;25.15;;;12.43;;
56005;SDS011;41888;44.696;10.522;2023-07-24T07:39:49;23.77;;;11.32;;
56005;SDS011;41888;44.696;10.522;2023-07-24T07:42:15;29.30;;;14.32;;
56005;SDS011;41888;44.696;10.522;2023-07-24T07:44:41;25.55;;;11.57;;
56005;SDS011;41888;44.696;10.522;2023-07-24T07:47:07;24.92;;;12.57;;
56005;SDS011;41888;44.696;10.522;2023-07-24T07:49:34;24.77;;;12.13;;
56005;SDS011;41888;44.696;10.522;2023-07-24T07:52:00;27.48;;;13.93;;
56005;SDS011;41888;44.696;10.522;2023-07-24T07:54:26;26.65;;;13.25;;
56005;SDS011;41888;44.696;10.522;2023-07-24T07:56:52;22.35;;;11.60;;
56005;SDS011;41888;44.696;10.522;2023-07-24T07:59:19;23.08;;;12.32;;
56005;SDS011;41888;44.696;10.522;2023-07-24T08:01:45;25.85;;;13.52;;
56005;SDS011;41888;44.696;10.522;2023-07-24T08:04:11;26.67;;;13.63;;
56005;SDS011;41888;44.696;10.522;2023-07-24T08:06:37;27.15;;;11.93;;
56005;SDS011;41888;44.696;10.522;2023-07-24T08:09:03;27.17;;;11.80;;
56005;SDS011;41888;44.696;10.522;2023-07-24T08:11:29;27.05;;;11.63;;
56005;SDS011;41888;44.696;10.522;2023-07-24T08:13:56;26.42;;;12.60;;
56005;SDS011;41888;44.696;10.522;2023-07-24T08:16:22;23.55;;;11.75;;
56005;SDS011;41888;44.696;10.522;2023-07-24T08:18:48;24.98;;;11.10;;
56005;SDS011;41888;44.696;10.522;2023-07-24T08:21:15;25.33;;;11.63;;
56005;SDS011;41888;44.696;10.522;2023-07-24T08:23:41;23.02;;;10.80;;
56005;SDS011;41888;44.696;10.522;2023-07-24T08:26:07;23.83;;;11.15;;
56005;SDS011;41888;44.696;10.522;2023-07-24T08:28:34;21.83;;;11.27;;
56005;SDS011;41888;44.696;10.522;2023-07-24T08:31:00;21.15;;;12.77;;
56005;SDS011;41888;44.696;10.522;2023-07-24T08:33:27;23.52;;;12.77;;
56005;SDS011;41888;44.696;10.522;2023-07-24T08:35:58;18.98;;;11.23;;
56005;SDS011;41888;44.696;10.522;2023-07-24T08:38:32;23.15;;;11.48;;
56005;SDS011;41888;44.696;10.522;2023-07-24T08:41:00;21.85;;;12.45;;
56005;SDS011;41888;44.696;10.522;2023-07-24T08:43:26;21.60;;;12.73;;
56005;SDS011;41888;44.696;10.522;2023-07-24T08:45:53;28.77;;;13.25;;
56005;SDS011;41888;44.696;10.522;2023-07-24T08:48:20;23.17;;;13.18;;
56005;SDS011;41888;44.696;10.522;2023-07-24T08:50:49;24.00;;;12.98;;
56005;SDS011;41888;44.696;10.522;2023-07-24T08:53:17;24.33;;;12.85;;
56005;SDS011;41888;44.696;10.522;2023-07-24T08:55:45;25.92;;;12.77;;
56005;SDS011;41888;44.696;10.522;2023-07-24T08:58:13;23.55;;;12.73;;
56005;SDS011;41888;44.696;10.522;2023-07-24T09:00:40;24.83;;;13.73;;
56005;SDS011;41888;44.696;10.522;2023-07-24T09:03:06;23.92;;;12.98;;
56005;SDS011;41888;44.696;10.522;2023-07-24T09:05:33;21.02;;;12.30;;
56005;SDS011;41888;44.696;10.522;2023-07-24T09:07:59;23.52;;;13.32;;
56005;SDS011;41888;44.696;10.522;2023-07-24T09:10:26;24.52;;;12.35;;
56005;SDS011;41888;44.696;10.522;2023-07-24T09:12:53;24.38;;;13.65;;
56005;SDS011;41888;44.696;10.522;2023-07-24T09:15:20;23.85;;;13.75;;
56005;SDS011;41888;44.696;10.522;2023-07-24T09:17:47;27.63;;;13.73;;
56005;SDS011;41888;44.696;10.522;2023-07-24T09:20:17;25.50;;;13.07;;
56005;SDS011;41888;44.696;10.522;2023-07-24T09:22:48;25.05;;;13.27;;
56005;SDS011;41888;44.696;10.522;2023-07-24T09:25:15;26.63;;;13.90;;
56005;SDS011;41888;44.696;10.522;2023-07-24T09:27:41;23.40;;;13.40;;
56005;SDS011;41888;44.696;10.522;2023-07-24T09:30:12;24.17;;;13.60;;
56005;SDS011;41888;44.696;10.522;2023-07-24T09:32:39;24.17;;;13.25;;
56005;SDS011;41888;44.696;10.522;2023-07-24T09:35:16;21.38;;;12.07;;
56005;SDS011;41888;44.696;10.522;2023-07-24T09:37:45;26.33;;;13.90;;
56005;SDS011;41888;44.696;10.522;2023-07-24T09:40:12;30.13;;;14.45;;
56005;SDS011;41888;44.696;10.522;2023-07-24T09:42:40;30.80;;;15.05;;
56005;SDS011;41888;44.696;10.522;2023-07-24T09:45:06;27.10;;;14.30;;
56005;SDS011;41888;44.696;10.522;2023-07-24T09:47:33;24.63;;;14.18;;
56005;SDS011;41888;44.696;10.522;2023-07-24T09:50:02;28.65;;;14.02;;
56005;SDS011;41888;44.696;10.522;2023-07-24T09:52:29;26.23;;;14.18;;
56005;SDS011;41888;44.696;10.522;2023-07-24T09:57:54;26.80;;;14.00;;
56005;SDS011;41888;44.696;10.522;2023-07-24T10:00:21;26.65;;;13.57;;
56005;SDS011;41888;44.696;10.522;2023-07-24T10:02:48;28.45;;;14.88;;
56005;SDS011;41888;44.696;10.522;2023-07-24T10:05:14;25.90;;;14.73;;
56005;SDS011;41888;44.696;10.522;2023-07-24T10:07:42;30.30;;;15.05;;
56005;SDS011;41888;44.696;10.522;2023-07-24T10:10:09;30.17;;;16.17;;
56005;SDS011;41888;44.696;10.522;2023-07-24T10:12:36;27.75;;;16.83;;
56005;SDS011;41888;44.696;10.522;2023-07-24T10:15:03;28.23;;;17.27;;
56005;SDS011;41888;44.696;10.522;2023-07-24T10:17:38;29.50;;;17.45;;
56005;SDS011;41888;44.696;10.522;2023-07-24T10:20:06;26.77;;;15.60;;
56005;SDS011;41888;44.696;10.522;2023-07-24T10:22:34;33.58;;;17.35;;
56005;SDS011;41888;44.696;10.522;2023-07-24T10:25:02;24.80;;;15.68;;
56005;SDS011;41888;44.696;10.522;2023-07-24T10:27:29;26.35;;;16.80;;
56005;SDS011;41888;44.696;10.522;2023-07-24T10:30:02;28.88;;;16.80;;
56005;SDS011;41888;44.696;10.522;2023-07-24T10:32:30;31.60;;;16.48;;
56005;SDS011;41888;44.696;10.522;2023-07-24T10:35:00;25.55;;;15.82;;
56005;SDS011;41888;44.696;10.522;2023-07-24T10:37:35;25.85;;;15.68;;
56005;SDS011;41888;44.696;10.522;2023-07-24T10:40:03;23.65;;;15.25;;
56005;SDS011;41888;44.696;10.522;2023-07-24T10:42:30;27.13;;;16.10;;
56005;SDS011;41888;44.696;10.522;2023-07-24T10:45:08;24.88;;;14.88;;
56005;SDS011;41888;44.696;10.522;2023-07-24T10:47:35;27.42;;;16.75;;
56005;SDS011;41888;44.696;10.522;2023-07-24T10:50:02;30.60;;;16.13;;
56005;SDS011;41888;44.696;10.522;2023-07-24T10:52:32;23.95;;;14.55;;
56005;SDS011;41888;44.696;10.522;2023-07-24T10:55:02;23.33;;;14.13;;
56005;SDS011;41888;44.696;10.522;2023-07-24T10:57:29;26.30;;;15.80;;
56005;SDS011;41888;44.696;10.522;2023-07-24T10:59:55;25.05;;;15.35;;
56005;SDS011;41888;44.696;10.522;2023-07-24T11:02:21;28.10;;;15.57;;
56005;SDS011;41888;44.696;10.522;2023-07-24T11:04:48;25.13;;;15.02;;
56005;SDS011;41888;44.696;10.522;2023-07-24T11:07:15;25.60;;;14.95;;
56005;SDS011;41888;44.696;10.522;2023-07-24T11:09:41;32.17;;;17.52;;
56005;SDS011;41888;44.696;10.522;2023-07-24T11:12:12;28.90;;;15.75;;
56005;SDS011;41888;44.696;10.522;2023-07-24T11:14:49;28.70;;;13.75;;
56005;SDS011;41888;44.696;10.522;2023-07-24T11:17:19;24.38;;;14.98;;
56005;SDS011;41888;44.696;10.522;2023-07-24T11:19:45;23.25;;;12.73;;
56005;SDS011;41888;44.696;10.522;2023-07-24T11:22:11;23.20;;;11.45;;
56005;SDS011;41888;44.696;10.522;2023-07-24T11:24:41;22.10;;;10.85;;
56005;SDS011;41888;44.696;10.522;2023-07-24T11:27:15;19.02;;;10.55;;
56005;SDS011;41888;44.696;10.522;2023-07-24T11:29:51;19.67;;;10.32;;
56005;SDS011;41888;44.696;10.522;2023-07-24T11:32:18;18.02;;;10.23;;
56005;SDS011;41888;44.696;10.522;2023-07-24T11:34:48;16.08;;;8.73;;
56005;SDS011;41888;44.696;10.522;2023-07-24T11:37:15;17.75;;;9.05;;
56005;SDS011;41888;44.696;10.522;2023-07-24T11:39:59;17.73;;;8.45;;
56005;SDS011;41888;44.696;10.522;2023-07-24T11:42:33;16.35;;;8.15;;
56005;SDS011;41888;44.696;10.522;2023-07-24T11:45:04;19.27;;;10.48;;
56005;SDS011;41888;44.696;10.522;2023-07-24T11:47:40;17.13;;;10.27;;
56005;SDS011;41888;44.696;10.522;2023-07-24T11:50:14;23.65;;;10.52;;
56005;SDS011;41888;44.696;10.522;2023-07-24T11:52:43;19.38;;;9.32;;
56005;SDS011;41888;44.696;10.522;2023-07-24T11:55:12;16.42;;;8.45;;
56005;SDS011;41888;44.696;10.522;2023-07-24T11:57:39;20.25;;;9.82;;
56005;SDS011;41888;44.696;10.522;2023-07-24T12:00:16;21.92;;;10.18;;
56005;SDS011;41888;44.696;10.522;2023-07-24T12:02:44;18.42;;;10.40;;
56005;SDS011;41888;44.696;10.522;2023-07-24T12:05:10;19.10;;;11.68;;
56005;SDS011;41888;44.696;10.522;2023-07-24T12:07:37;17.15;;;9.40;;
56005;SDS011;41888;44.696;10.522;2023-07-24T12:10:03;20.77;;;9.63;;
56005;SDS011;41888;44.696;10.522;2023-07-24T12:15:05;18.40;;;10.80;;
56005;SDS011;41888;44.696;10.522;2023-07-24T12:17:32;15.43;;;9.40;;
56005;SDS011;41888;44.696;10.522;2023-07-24T12:19:58;16.02;;;9.52;;
56005;SDS011;41888;44.696;10.522;2023-07-24T12:22:24;15.52;;;8.80;;
56005;SDS011;41888;44.696;10.522;2023-07-24T12:24:51;18.52;;;10.15;;
56005;SDS011;41888;44.696;10.522;2023-07-24T12:27:17;18.00;;;11.20;;
56005;SDS011;41888;44.696;10.522;2023-07-24T12:29:43;19.40;;;11.35;;
56005;SDS011;41888;44.696;10.522;2023-07-24T12:32:09;18.60;;;11.40;;
56005;SDS011;41888;44.696;10.522;2023-07-24T12:34:35;22.20;;;10.93;;
56005;SDS011;41888;44.696;10.522;2023-07-24T12:37:02;19.75;;;9.50;;
56005;SDS011;41888;44.696;10.522;2023-07-24T12:39:28;20.27;;;11.52;;
56005;SDS011;41888;44.696;10.522;2023-07-24T12:41:54;20.27;;;10.60;;
56005;SDS011;41888;44.696;10.522;2023-07-24T12:44:20;20.83;;;10.23;;
56005;SDS011;41888;44.696;10.522;2023-07-24T12:46:47;19.85;;;11.95;;
56005;SDS011;41888;44.696;10.522;2023-07-24T12:49:13;18.73;;;10.05;;
56005;SDS011;41888;44.696;10.522;2023-07-24T12:51:39;21.27;;;11.27;;
56005;SDS011;41888;44.696;10.522;2023-07-24T12:54:06;20.40;;;11.27;;
56005;SDS011;41888;44.696;10.522;2023-07-24T12:56:32;16.65;;;9.73;;
56005;SDS011;41888;44.696;10.522;2023-07-24T12:58:58;22.15;;;10.27;;
56005;SDS011;41888;44.696;10.522;2023-07-24T13:01:24;19.70;;;11.00;;
56005;SDS011;41888;44.696;10.522;2023-07-24T13:03:53;18.58;;;9.75;;
56005;SDS011;41888;44.696;10.522;2023-07-24T13:06:19;20.48;;;10.38;;
56005;SDS011;41888;44.696;10.522;2023-07-24T13:08:46;15.90;;;10.38;;
56005;SDS011;41888;44.696;10.522;2023-07-24T13:11:12;20.70;;;10.35;;
56005;SDS011;41888;44.696;10.522;2023-07-24T13:13:38;16.23;;;9.43;;
56005;SDS011;41888;44.696;10.522;2023-07-24T13:16:05;18.13;;;9.32;;
56005;SDS011;41888;44.696;10.522;2023-07-24T13:18:31;25.08;;;9.35;;
56005;SDS011;41888;44.696;10.522;2023-07-24T13:20:57;19.40;;;9.13;;
56005;SDS011;41888;44.696;10.522;2023-07-24T13:23:24;16.33;;;8.73;;
56005;SDS011;41888;44.696;10.522;2023-07-24T13:25:51;17.75;;;9.07;;
56005;SDS011;41888;44.696;10.522;2023-07-24T13:28:18;19.40;;;8.80;;
56005;SDS011;41888;44.696;10.522;2023-07-24T13:30:45;15.18;;;8.23;;
56005;SDS011;41888;44.696;10.522;2023-07-24T13:33:11;15.95;;;8.15;;
56005;SDS011;41888;44.696;10.522;2023-07-24T13:35:38;18.02;;;7.68;;
56005;SDS011;41888;44.696;10.522;2023-07-24T13:38:04;13.63;;;7.53;;
56005;SDS011;41888;44.696;10.522;2023-07-24T13:40:33;16.58;;;7.22;;
56005;SDS011;41888;44.696;10.522;2023-07-24T13:42:59;11.88;;;7.25;;
56005;SDS011;41888;44.696;10.522;2023-07-24T13:45:27;14.55;;;7.25;;
56005;SDS011;41888;44.696;10.522;2023-07-24T13:47:54;15.82;;;8.25;;
56005;SDS011;41888;44.696;10.522;2023-07-24T13:50:21;17.13;;;8.00;;
56005;SDS011;41888;44.696;10.522;2023-07-24T13:52:47;15.20;;;7.57;;
56005;SDS011;41888;44.696;10.522;2023-07-24T13:55:13;14.68;;;8.43;;
56005;SDS011;41888;44.696;10.522;2023-07-24T13:57:40;14.82;;;8.63;;
56005;SDS011;41888;44.696;10.522;2023-07-24T14:00:07;15.80;;;8.18;;
56005;SDS011;41888;44.696;10.522;2023-07-24T14:02:33;13.60;;;7.55;;
56005;SDS011;41888;44.696;10.522;2023-07-24T14:04:59;16.85;;;7.78;;
56005;SDS011;41888;44.696;10.522;2023-07-24T14:07:25;15.50;;;8.55;;
56005;SDS011;41888;44.696;10.522;2023-07-24T14:09:52;14.23;;;7.53;;
56005;SDS011;41888;44.696;10.522;2023-07-24T14:12:18;12.02;;;6.88;;
56005;SDS011;41888;44.696;10.522;2023-07-24T14:14:44;10.85;;;6.90;;
56005;SDS011;41888;44.696;10.522;2023-07-24T14:17:10;15.07;;;7.07;;
56005;SDS011;41888;44.696;10.522;2023-07-24T14:19:36;10.40;;;6.50;;
56005;SDS011;41888;44.696;10.522;2023-07-24T14:22:03;12.38;;;6.32;;